Culleredo, Spain
Current Conditions -  °F | °C
As of 12:00 PM on Friday 24 Oct 2014 (Local Time) from LECO Reporting Station
Clear Clear  
Wind Chill: 66°   Ceiling: Unl
Heat Index: 66°   Visibility: 6mi
Dew Point: 61°   Wind: 3mph
Humidity: 83%   Direction: 160°SSE
Pressure: 30.12"   Gusts: NA
Location:  43.29°N, 8.39°W
Report Text: LECO 241000Z 16003KT 070V220 CAVOK 19/16 Q1020 NOSIG
Loading
Personal Weather Stations






























Interactive Weather Map
Tropical Storm Tracking
New forecast layout! Learn more

10-Day Weather Forecast

Advertisements
Track Severe Weather on mobile